createdAt,value
2023-03-25T00:00:43.195Z,9.74
2023-03-25T00:01:43.925Z,9.84
2023-03-25T00:02:45.120Z,9.88
2023-03-25T00:03:45.351Z,9.9
2023-03-25T00:04:45.806Z,9.9
2023-03-25T00:05:46.539Z,9.82
2023-03-25T00:06:47.273Z,9.87
2023-03-25T00:07:47.966Z,9.84
2023-03-25T00:08:48.688Z,9.88
2023-03-25T00:09:49.001Z,9.97
2023-03-25T00:10:49.735Z,10.03
2023-03-25T00:11:50.048Z,10.03
2023-03-25T00:12:50.241Z,10
2023-03-25T00:13:50.932Z,10.07
2023-03-25T00:14:51.459Z,10.03
2023-03-25T00:15:52.734Z,10.09
2023-03-25T00:16:52.766Z,10.09
2023-03-25T00:17:52.954Z,10.09
2023-03-25T00:18:53.859Z,10.2
2023-03-25T00:19:54.549Z,10.13
2023-03-25T00:20:55.264Z,10.13
2023-03-25T00:21:55.947Z,10.21
2023-03-25T00:22:56.977Z,10.13
2023-03-25T00:23:57.715Z,10.18
2023-03-25T00:24:58.027Z,10.1
2023-03-25T00:25:58.803Z,10.18
2023-03-25T00:26:58.680Z,10.18
2023-03-25T00:27:59.372Z,10.27
2023-03-25T00:29:00.045Z,10.15
2023-03-25T00:30:00.167Z,10.24
2023-03-25T00:31:01.016Z,10.21
2023-03-25T00:32:00.833Z,10.1
2023-03-25T00:33:01.972Z,10.21
2023-03-25T00:34:02.707Z,10.15
2023-03-25T00:35:03.196Z,10.24
2023-03-25T00:36:04.116Z,10.21
2023-03-25T00:37:04.644Z,10.13
2023-03-25T00:38:05.335Z,10.2
2023-03-25T00:39:05.876Z,10.17
2023-03-25T00:40:06.579Z,10.17
2023-03-25T00:41:07.697Z,10.24
2023-03-25T00:42:08.228Z,10.15
2023-03-25T00:43:09.451Z,10.28
2023-03-25T00:44:09.975Z,10.21
2023-03-25T00:45:10.689Z,10.23
2023-03-25T00:46:12.004Z,10.23
2023-03-25T00:47:12.066Z,10.24
2023-03-25T00:48:13.160Z,10.24
2023-03-25T00:49:13.664Z,10.27
2023-03-25T00:50:14.171Z,10.07
2023-03-25T00:51:14.696Z,10.12
2023-03-25T00:52:15.201Z,10.1
2023-03-25T00:53:15.370Z,10.09
2023-03-25T00:54:15.860Z,10.02
2023-03-25T00:55:16.148Z,10.03
2023-03-25T00:56:16.431Z,10.09
2023-03-25T00:57:17.482Z,10.02
2023-03-25T00:58:18.184Z,10.02
2023-03-25T00:59:18.735Z,10.05
2023-03-25T01:00:19.493Z,10.03
2023-03-25T01:01:20.364Z,9.94
2023-03-25T01:02:21.029Z,10.03
2023-03-25T01:03:21.886Z,10
2023-03-25T01:04:22.653Z,10.05
2023-03-25T01:05:23.740Z,9.95
2023-03-25T01:06:24.477Z,9.97
2023-03-25T01:07:25.598Z,10.02
2023-03-25T01:08:26.101Z,10.09
2023-03-25T01:09:26.795Z,10.06
2023-03-25T01:10:27.526Z,10.06
2023-03-25T01:11:28.211Z,10
2023-03-25T01:12:28.900Z,9.95
2023-03-25T01:13:29.474Z,9.97
2023-03-25T01:14:30.166Z,9.9
2023-03-25T01:15:30.961Z,9.91
2023-03-25T01:16:32.069Z,10.06
2023-03-25T01:17:32.795Z,10.02
2023-03-25T01:18:33.734Z,10.06
2023-03-25T01:19:34.482Z,10.02
2023-03-25T01:20:34.980Z,10.05
2023-03-25T01:21:35.465Z,10.03
2023-03-25T01:22:36.021Z,10.03
2023-03-25T01:23:36.457Z,10
2023-03-25T01:24:37.389Z,10.09
2023-03-25T01:25:37.488Z,9.95
2023-03-25T01:26:38.187Z,9.92
2023-03-25T01:27:39.170Z,9.97
2023-03-25T01:28:39.682Z,9.97
2023-03-25T01:29:40.195Z,10.02
2023-03-25T01:30:41.149Z,10.02
2023-03-25T01:31:41.284Z,10.05
2023-03-25T01:32:41.529Z,9.97
2023-03-25T01:33:42.384Z,10.06
2023-03-25T01:34:43.089Z,10.02
2023-03-25T01:35:43.887Z,10
2023-03-25T01:36:44.573Z,10.06
2023-03-25T01:37:45.337Z,10.05
2023-03-25T01:38:46.034Z,10.06
2023-03-25T01:39:46.718Z,10.15
2023-03-25T01:40:47.802Z,10.09
2023-03-25T01:41:55.448Z,10
2023-03-25T01:43:49.013Z,10.02
2023-03-25T01:44:49.498Z,10.09
2023-03-25T01:45:50.590Z,10.03
2023-03-25T01:46:50.699Z,10.06
2023-03-25T01:47:51.337Z,9.97
2023-03-25T01:48:51.011Z,9.99
2023-03-25T01:49:51.496Z,9.82
2023-03-25T01:50:52.004Z,9.84
2023-03-25T01:51:52.682Z,9.73
2023-03-25T01:52:53.364Z,9.72
2023-03-25T01:53:53.755Z,9.63
2023-03-25T01:54:54.255Z,9.63
2023-03-25T01:55:55.093Z,9.52
2023-03-25T01:56:55.462Z,9.55
2023-03-25T01:57:56.320Z,9.52
2023-03-25T01:58:56.815Z,9.4
2023-03-25T01:59:57.581Z,9.33
2023-03-25T02:00:58.321Z,9.36
2023-03-25T02:01:59.359Z,9.34
2023-03-25T02:02:59.264Z,9.37
2023-03-25T02:04:00.246Z,9.37
2023-03-25T02:05:00.796Z,9.29
2023-03-25T02:06:00.850Z,9.24
2023-03-25T02:07:01.443Z,9.27
2023-03-25T02:08:01.940Z,9.29
2023-03-25T02:09:01.874Z,9.27
2023-03-25T02:10:02.917Z,9.22
2023-03-25T02:11:03.649Z,9.24
2023-03-25T02:12:04.572Z,9.24
2023-03-25T02:13:05.269Z,9.18
2023-03-25T02:14:05.844Z,9.22
2023-03-25T02:15:06.352Z,9.13
2023-03-25T02:16:07.560Z,9.11
2023-03-25T02:17:07.703Z,9.15
2023-03-25T02:18:08.578Z,9.13
2023-03-25T02:19:09.401Z,9.09
2023-03-25T02:20:09.894Z,9.08
2023-03-25T02:21:10.616Z,9.05
2023-03-25T02:22:11.505Z,9
2023-03-25T02:23:12.197Z,8.97
2023-03-25T02:24:12.510Z,8.97
2023-03-25T02:25:13.012Z,8.95
2023-03-25T02:26:13.926Z,8.79
2023-03-25T02:27:14.734Z,8.81
2023-03-25T02:28:15.408Z,8.79
2023-03-25T02:29:16.173Z,8.72
2023-03-25T02:30:16.879Z,8.71
2023-03-25T02:31:17.651Z,8.68
2023-03-25T02:32:18.178Z,8.61
2023-03-25T02:33:18.732Z,8.64
2023-03-25T02:34:19.401Z,8.64
2023-03-25T02:35:20.155Z,8.57
2023-03-25T02:36:21.337Z,8.6
2023-03-25T02:37:21.810Z,8.6
2023-03-25T02:38:23.191Z,8.54
2023-03-25T02:39:22.802Z,8.6
2023-03-25T02:40:23.345Z,8.52
2023-03-25T02:41:24.100Z,8.6
2023-03-25T02:42:24.783Z,8.64
2023-03-25T02:43:25.252Z,8.61
2023-03-25T02:44:25.522Z,8.61
2023-03-25T02:45:26.438Z,8.63
2023-03-25T02:46:27.555Z,8.66
2023-03-25T02:47:27.490Z,8.66
2023-03-25T02:48:28.278Z,8.68
2023-03-25T02:49:29.449Z,8.75
2023-03-25T02:50:29.204Z,8.71
2023-03-25T02:51:29.708Z,8.69
2023-03-25T02:52:30.404Z,8.68
2023-03-25T02:53:30.711Z,8.68
2023-03-25T02:54:31.091Z,8.68
2023-03-25T02:55:31.803Z,8.69
2023-03-25T02:56:32.312Z,8.59
2023-03-25T02:57:32.913Z,8.64
2023-03-25T02:58:33.802Z,8.63
2023-03-25T02:59:34.095Z,8.63
2023-03-25T03:00:34.783Z,8.61
2023-03-25T03:01:35.884Z,8.64
2023-03-25T03:02:36.256Z,8.63
2023-03-25T03:03:36.628Z,8.66
2023-03-25T03:04:36.729Z,8.54
2023-03-25T03:05:37.026Z,8.5
2023-03-25T03:06:37.972Z,8.59
2023-03-25T03:07:38.268Z,8.59
2023-03-25T03:08:38.992Z,8.57
2023-03-25T03:09:39.914Z,8.52
2023-03-25T03:10:40.816Z,8.41
2023-03-25T03:11:41.309Z,8.38
2023-03-25T03:12:41.771Z,8.38
2023-03-25T03:13:42.098Z,8.44
2023-03-25T03:14:42.668Z,8.41
2023-03-25T03:15:43.390Z,8.35
2023-03-25T03:16:44.718Z,8.38
2023-03-25T03:17:45.025Z,8.34
2023-03-25T03:18:45.249Z,8.28
2023-03-25T03:19:46.010Z,8.27
2023-03-25T03:20:46.519Z,8.24
2023-03-25T03:21:47.861Z,8.28
2023-03-25T03:22:47.946Z,8.31
2023-03-25T03:23:48.083Z,8.24
2023-03-25T03:24:48.650Z,8.17
2023-03-25T03:25:49.998Z,8.18
2023-03-25T03:26:49.796Z,8.13
2023-03-25T03:27:50.325Z,8.26
2023-03-25T03:28:51.670Z,8.2
2023-03-25T03:29:52.208Z,8.21
2023-03-25T03:30:52.729Z,8.21
2023-03-25T03:32:12.775Z,8.18
2023-03-25T03:33:55.112Z,8.21
2023-03-25T03:34:56.439Z,8.17
2023-03-25T03:35:57.037Z,8.21
2023-03-25T03:36:56.803Z,8.17
2023-03-25T03:37:57.598Z,8.2
2023-03-25T03:38:58.489Z,8.24
2023-03-25T03:39:58.984Z,8.27
2023-03-25T03:40:59.910Z,8.27
2023-03-25T03:42:00.666Z,8.28
2023-03-25T03:43:00.992Z,8.26
2023-03-25T03:44:01.499Z,8.17
2023-03-25T03:45:01.820Z,8.18
2023-03-25T03:46:02.628Z,8.17
2023-03-25T03:47:03.467Z,8.21
2023-03-25T03:48:04.572Z,8.18
2023-03-25T03:49:05.559Z,8.23
2023-03-25T03:50:06.344Z,8.21
2023-03-25T03:51:07.053Z,8.27
2023-03-25T03:52:14.074Z,8.26
2023-03-25T03:54:09.507Z,8.34
2023-03-25T03:55:09.915Z,8.31
2023-03-25T03:56:10.000Z,8.38
2023-03-25T03:57:11.034Z,8.41
2023-03-25T03:58:11.529Z,8.41
2023-03-25T03:59:12.257Z,8.36
2023-03-25T04:00:12.732Z,8.38
2023-03-25T04:01:13.213Z,8.46
2023-03-25T04:02:13.962Z,8.46
2023-03-25T04:03:14.457Z,8.52
2023-03-25T04:04:14.742Z,8.57
2023-03-25T04:05:15.094Z,8.57
2023-03-25T04:06:15.395Z,8.61
2023-03-25T04:07:16.341Z,8.64
2023-03-25T04:08:17.029Z,8.61
2023-03-25T04:09:17.730Z,8.74
2023-03-25T04:10:18.211Z,8.74
2023-03-25T04:11:18.735Z,8.81
2023-03-25T04:12:19.220Z,8.84
2023-03-25T04:13:19.725Z,8.82
2023-03-25T04:14:20.428Z,8.79
2023-03-25T04:15:21.233Z,8.92
2023-03-25T04:16:22.305Z,8.79
2023-03-25T04:17:23.440Z,8.87
2023-03-25T04:18:23.830Z,8.92
2023-03-25T04:19:23.520Z,8.9
2023-03-25T04:20:24.722Z,8.89
2023-03-25T04:21:25.168Z,9
2023-03-25T04:22:25.649Z,8.96
2023-03-25T04:23:26.530Z,8.96
2023-03-25T04:24:27.269Z,8.93
2023-03-25T04:25:27.799Z,8.95
2023-03-25T04:26:28.288Z,8.84
2023-03-25T04:27:29.182Z,8.84
2023-03-25T04:28:29.944Z,8.81
2023-03-25T04:29:29.643Z,8.79
2023-03-25T04:30:30.313Z,8.79
2023-03-25T04:31:31.101Z,8.69
2023-03-25T04:32:30.940Z,8.68
2023-03-25T04:33:31.313Z,8.57
2023-03-25T04:34:31.794Z,8.52
2023-03-25T04:35:32.795Z,8.64
2023-03-25T04:36:33.818Z,8.53
2023-03-25T04:37:34.497Z,8.57
2023-03-25T04:38:35.452Z,8.53
2023-03-25T04:39:36.193Z,8.46
2023-03-25T04:40:36.678Z,8.39
2023-03-25T04:41:38.138Z,8.38
2023-03-25T04:42:38.098Z,8.41
2023-03-25T04:43:38.804Z,8.38
2023-03-25T04:44:39.835Z,8.39
2023-03-25T04:45:40.494Z,8.49
2023-03-25T04:46:41.191Z,8.39
2023-03-25T04:47:42.250Z,8.39
2023-03-25T04:48:42.476Z,8.41
2023-03-25T04:49:43.243Z,8.44
2023-03-25T04:50:44.414Z,8.39
2023-03-25T04:51:45.180Z,8.41
2023-03-25T04:52:46.073Z,8.41
2023-03-25T04:53:46.815Z,8.39
2023-03-25T04:54:47.564Z,8.45
2023-03-25T04:55:48.574Z,8.57
2023-03-25T04:56:49.212Z,8.54
2023-03-25T04:57:49.585Z,8.5
2023-03-25T04:58:50.502Z,8.5
2023-03-25T04:59:50.996Z,8.52
2023-03-25T05:00:51.287Z,8.54
2023-03-25T05:01:52.305Z,8.63
2023-03-25T05:02:53.125Z,8.5
2023-03-25T05:03:52.860Z,8.61
2023-03-25T05:04:53.878Z,8.63
2023-03-25T05:05:54.837Z,8.6
2023-03-25T05:06:55.318Z,8.61
2023-03-25T05:07:56.293Z,8.61
2023-03-25T05:09:56.691Z,8.66
2023-03-25T05:10:56.983Z,8.74
2023-03-25T05:11:57.501Z,8.75
2023-03-25T05:12:58.180Z,8.68
2023-03-25T05:13:59.208Z,8.75
2023-03-25T05:14:59.876Z,8.64
2023-03-25T05:16:00.514Z,8.69
2023-03-25T05:17:01.176Z,8.68
2023-03-25T05:18:02.267Z,8.68
2023-03-25T05:19:02.531Z,8.6
2023-03-25T05:20:02.647Z,8.6
2023-03-25T05:21:02.660Z,8.54
2023-03-25T05:22:03.249Z,8.52
2023-03-25T05:23:04.287Z,8.56
2023-03-25T05:24:04.997Z,8.56
2023-03-25T05:25:05.782Z,8.61
2023-03-25T05:26:06.470Z,8.61
2023-03-25T05:27:06.948Z,8.63
2023-03-25T05:28:07.863Z,8.6
2023-03-25T05:29:08.824Z,8.71
2023-03-25T05:30:08.908Z,8.72
2023-03-25T05:31:10.025Z,8.68
2023-03-25T05:32:10.842Z,8.63
2023-03-25T05:33:11.881Z,8.61
2023-03-25T05:34:12.854Z,8.59
2023-03-25T05:35:13.545Z,8.61
2023-03-25T05:36:14.210Z,8.66
2023-03-25T05:37:14.895Z,8.64
2023-03-25T05:38:15.172Z,8.64
2023-03-25T05:39:16.110Z,8.57
2023-03-25T05:40:20.857Z,8.59
2023-03-25T05:42:17.703Z,8.61
2023-03-25T05:43:18.562Z,8.59
2023-03-25T05:44:19.274Z,8.61
2023-03-25T05:45:19.961Z,8.6
2023-03-25T05:46:20.236Z,8.53
2023-03-25T05:47:20.927Z,8.61
2023-03-25T05:48:21.507Z,8.46
2023-03-25T05:49:22.340Z,8.49
2023-03-25T05:50:23.453Z,8.45
2023-03-25T05:51:24.212Z,8.41
2023-03-25T05:52:25.315Z,8.49
2023-03-25T05:53:26.212Z,8.44
2023-03-25T05:54:27.102Z,8.45
2023-03-25T05:55:27.784Z,8.34
2023-03-25T05:56:28.314Z,8.31
2023-03-25T05:57:29.071Z,8.24
2023-03-25T05:58:29.977Z,8.23
2023-03-25T05:59:30.903Z,8.17
2023-03-25T06:00:31.589Z,8.18
2023-03-25T06:01:37.266Z,8.18
2023-03-25T06:03:33.130Z,8.08
2023-03-25T06:04:33.143Z,8.01
2023-03-25T06:05:34.091Z,8.09
2023-03-25T06:06:35.099Z,8.05
2023-03-25T06:07:34.799Z,8.03
2023-03-25T06:08:35.394Z,8.11
2023-03-25T06:09:36.333Z,8.06
2023-03-25T06:10:37.272Z,8.08
2023-03-25T06:11:37.751Z,8.09
2023-03-25T06:12:38.451Z,8.02
2023-03-25T06:13:39.359Z,8.06
2023-03-25T06:14:39.472Z,8.02
2023-03-25T06:15:40.241Z,7.9
2023-03-25T06:16:40.027Z,7.9
2023-03-25T06:17:41.075Z,7.98
2023-03-25T06:18:41.882Z,7.9
2023-03-25T06:19:42.824Z,7.99
2023-03-25T06:20:43.726Z,7.91
2023-03-25T06:21:44.457Z,7.9
2023-03-25T06:22:44.970Z,7.88
2023-03-25T06:23:45.266Z,7.91
2023-03-25T06:24:46.575Z,7.84
2023-03-25T06:25:47.463Z,7.87
2023-03-25T06:26:47.657Z,7.85
2023-03-25T06:27:48.395Z,7.9
2023-03-25T06:28:48.954Z,7.81
2023-03-25T06:29:49.665Z,7.85
2023-03-25T06:30:50.391Z,7.87
2023-03-25T06:31:50.403Z,7.8
2023-03-25T06:32:51.457Z,7.84
2023-03-25T06:33:52.219Z,7.91
2023-03-25T06:34:52.776Z,7.95
2023-03-25T06:35:53.798Z,7.91
2023-03-25T06:36:53.593Z,7.83
2023-03-25T06:37:54.098Z,7.85
2023-03-25T06:38:54.838Z,7.81
2023-03-25T06:39:55.582Z,7.75
2023-03-25T06:40:56.076Z,7.8
2023-03-25T06:41:56.972Z,7.83
2023-03-25T06:42:57.474Z,7.77
2023-03-25T06:43:58.183Z,7.78
2023-03-25T06:44:59.063Z,7.66
2023-03-25T06:46:00.646Z,7.66
2023-03-25T06:47:00.660Z,7.72
2023-03-25T06:48:01.031Z,7.81
2023-03-25T06:49:01.960Z,7.77
2023-03-25T06:50:02.720Z,7.8
2023-03-25T06:51:03.701Z,7.88
2023-03-25T06:52:04.446Z,7.93
2023-03-25T06:53:05.136Z,7.84
2023-03-25T06:54:05.900Z,7.84
2023-03-25T06:55:06.609Z,7.99
2023-03-25T06:56:07.100Z,7.91
2023-03-25T06:57:08.280Z,8.09
2023-03-25T06:58:08.091Z,8.17
2023-03-25T06:59:08.827Z,8.18
2023-03-25T07:00:09.562Z,8.08
2023-03-25T07:01:10.504Z,8.13
2023-03-25T07:02:10.557Z,8.16
2023-03-25T07:03:11.083Z,8.17
2023-03-25T07:04:11.393Z,8.18
2023-03-25T07:05:12.233Z,8.21
2023-03-25T07:06:12.208Z,8.28
2023-03-25T07:07:13.697Z,8.34
2023-03-25T07:08:14.601Z,8.39
2023-03-25T07:09:15.299Z,8.38
2023-03-25T07:10:15.782Z,8.56
2023-03-25T07:11:16.284Z,8.63
2023-03-25T07:12:16.604Z,8.63
2023-03-25T07:13:17.508Z,8.64
2023-03-25T07:14:17.998Z,8.66
2023-03-25T07:15:18.684Z,8.59
2023-03-25T07:16:20.427Z,8.63
2023-03-25T07:17:19.977Z,8.61
2023-03-25T07:18:21.016Z,8.59
2023-03-25T07:20:23.248Z,8.68
2023-03-25T07:21:22.977Z,8.66
2023-03-25T07:22:23.711Z,8.66
2023-03-25T07:23:24.087Z,8.71
2023-03-25T07:24:24.812Z,8.77
2023-03-25T07:25:25.710Z,8.75
2023-03-25T07:26:26.655Z,8.79
2023-03-25T07:28:27.293Z,8.97
2023-03-25T07:29:27.987Z,9
2023-03-25T07:30:28.686Z,9.02
2023-03-25T07:31:29.434Z,8.97
2023-03-25T07:32:30.723Z,9.13
2023-03-25T07:33:30.492Z,9.11
2023-03-25T07:34:31.604Z,9.05
2023-03-25T07:35:32.498Z,9.03
2023-03-25T07:36:32.758Z,9.13
2023-03-25T07:37:33.807Z,9.21
2023-03-25T07:38:34.363Z,9.31
2023-03-25T07:39:35.069Z,9.84
2023-03-25T07:40:35.666Z,10.33
2023-03-25T07:41:36.255Z,10.98
2023-03-25T07:42:36.962Z,11.6
2023-03-25T07:43:37.659Z,11.51
2023-03-25T07:44:38.472Z,11.41
2023-03-25T07:45:49.831Z,11.07
2023-03-25T07:47:40.237Z,10.79
2023-03-25T07:48:40.751Z,10.59
2023-03-25T07:49:41.875Z,10.43
2023-03-25T07:50:42.857Z,10.24
2023-03-25T07:51:43.752Z,10.2
2023-03-25T07:52:44.303Z,10.13
2023-03-25T07:53:44.719Z,10.02
2023-03-25T07:54:44.954Z,9.94
2023-03-25T07:55:45.256Z,9.8
2023-03-25T07:56:46.016Z,9.73
2023-03-25T07:57:46.712Z,9.69
2023-03-25T07:58:47.673Z,9.67
2023-03-25T07:59:48.210Z,9.56
2023-03-25T08:00:48.527Z,9.56
2023-03-25T08:01:49.010Z,9.51
2023-03-25T08:02:49.798Z,9.44
2023-03-25T08:03:50.624Z,9.37
2023-03-25T08:04:51.486Z,9.27
2023-03-25T08:05:52.297Z,9.22
2023-03-25T08:06:51.925Z,9.21
2023-03-25T08:07:53.338Z,9.16
2023-03-25T08:08:53.040Z,9.02
2023-03-25T08:09:53.951Z,8.79
2023-03-25T08:10:54.854Z,8.86
2023-03-25T08:11:54.796Z,8.77
2023-03-25T08:12:55.504Z,8.77
2023-03-25T08:13:55.907Z,8.74
2023-03-25T08:14:56.942Z,8.74
2023-03-25T08:15:56.924Z,8.74
2023-03-25T08:16:57.420Z,8.75
2023-03-25T08:17:58.457Z,8.78
2023-03-25T08:18:58.316Z,8.78
2023-03-25T08:19:59.487Z,8.78
2023-03-25T08:20:59.399Z,8.77
2023-03-25T08:21:59.938Z,8.86
2023-03-25T08:23:00.728Z,8.81
2023-03-25T08:24:01.415Z,8.93
2023-03-25T08:25:02.310Z,9.08
2023-03-25T08:26:02.997Z,9.21
2023-03-25T08:27:16.905Z,9.34
2023-03-25T08:29:04.474Z,9.59
2023-03-25T08:30:04.431Z,9.63
2023-03-25T08:31:04.752Z,9.88
2023-03-25T08:32:05.829Z,10.2
2023-03-25T08:33:06.876Z,10.49
2023-03-25T08:34:07.258Z,10.72
2023-03-25T08:35:07.200Z,10.79
2023-03-25T08:36:07.713Z,10.89
2023-03-25T08:37:07.936Z,10.84
2023-03-25T08:38:08.914Z,10.77
2023-03-25T08:39:09.607Z,10.79
2023-03-25T08:40:09.936Z,10.84
2023-03-25T08:41:10.642Z,10.86
2023-03-25T08:42:11.150Z,10.82
2023-03-25T08:43:11.856Z,10.87
2023-03-25T08:44:12.207Z,10.9
2023-03-25T08:45:12.599Z,11.02
2023-03-25T08:46:13.632Z,11.2
2023-03-25T08:47:14.044Z,11.22
2023-03-25T08:48:14.567Z,11.25
2023-03-25T08:49:14.463Z,11.22
2023-03-25T08:50:15.210Z,11.27
2023-03-25T08:51:16.179Z,11.34
2023-03-25T08:52:16.879Z,11.37
2023-03-25T08:53:17.468Z,11.44
2023-03-25T08:54:18.193Z,11.58
2023-03-25T08:55:18.686Z,11.58
2023-03-25T08:56:19.611Z,11.59
2023-03-25T08:57:20.183Z,11.74
2023-03-25T08:58:20.577Z,11.85
2023-03-25T08:59:21.144Z,11.88
2023-03-25T09:00:22.095Z,12
2023-03-25T09:01:22.878Z,12.05
2023-03-25T09:02:23.997Z,12.03
2023-03-25T09:03:24.153Z,12.17
2023-03-25T09:04:24.274Z,12.21
2023-03-25T09:05:25.303Z,12.32
2023-03-25T09:06:25.679Z,12.33
2023-03-25T09:07:25.467Z,12.45
2023-03-25T09:08:26.371Z,12.54
2023-03-25T09:09:27.104Z,12.66
2023-03-25T09:10:28.047Z,12.63
2023-03-25T09:11:39.596Z,12.58
2023-03-25T09:13:29.563Z,12.65
2023-03-25T09:14:30.077Z,12.63
2023-03-25T09:15:31.010Z,12.75
2023-03-25T09:16:31.494Z,12.8
2023-03-25T09:17:32.382Z,12.81
2023-03-25T09:18:33.159Z,12.87
2023-03-25T09:19:34.136Z,12.91
2023-03-25T09:20:34.663Z,13.02
2023-03-25T09:21:35.008Z,13.09
2023-03-25T09:22:35.908Z,13.11
2023-03-25T09:23:35.894Z,13.16
2023-03-25T09:24:36.680Z,13.17
2023-03-25T09:25:36.388Z,13.09
2023-03-25T09:26:37.088Z,13.06
2023-03-25T09:27:37.594Z,13.01
2023-03-25T09:28:38.022Z,13.11
2023-03-25T09:29:38.966Z,13.19
2023-03-25T09:30:39.898Z,13.24
2023-03-25T09:31:40.829Z,13.11
2023-03-25T09:32:41.531Z,13.05
2023-03-25T09:33:42.360Z,13.19
2023-03-25T09:34:43.065Z,13.17
2023-03-25T09:35:43.748Z,13.37
2023-03-25T09:36:44.012Z,13.27
2023-03-25T09:37:43.913Z,13.4
2023-03-25T09:38:44.644Z,13.23
2023-03-25T09:39:45.219Z,13.13
2023-03-25T09:40:45.949Z,13.05
2023-03-25T09:41:46.052Z,13.12
2023-03-25T09:42:46.547Z,13.08
2023-03-25T09:43:47.249Z,13.09
2023-03-25T09:44:48.264Z,13.08
2023-03-25T09:45:48.535Z,12.93
2023-03-25T09:46:49.295Z,12.8
2023-03-25T09:47:50.628Z,12.58
2023-03-25T09:48:50.965Z,12.54
2023-03-25T09:49:51.787Z,12.39
2023-03-25T09:50:52.575Z,12.36
2023-03-25T09:51:53.580Z,12.32
2023-03-25T09:52:54.281Z,12.28
2023-03-25T09:53:54.469Z,12.28
2023-03-25T09:54:55.366Z,12.11
2023-03-25T09:55:56.328Z,12.08
2023-03-25T09:56:56.951Z,12.18
2023-03-25T09:57:58.096Z,12.11
2023-03-25T09:58:58.895Z,12.08
2023-03-25T09:59:59.624Z,11.89
2023-03-25T10:01:00.784Z,11.8
2023-03-25T10:02:00.695Z,11.85
2023-03-25T10:03:01.514Z,11.88
2023-03-25T10:04:02.116Z,11.93
2023-03-25T10:05:02.663Z,12.03
2023-03-25T10:06:03.609Z,12.05
2023-03-25T10:07:04.342Z,12.08
2023-03-25T10:08:05.236Z,12.08
2023-03-25T10:09:05.705Z,12.18
2023-03-25T10:10:06.240Z,12.3
2023-03-25T10:11:06.973Z,12.53
2023-03-25T10:12:07.479Z,12.69
2023-03-25T10:13:07.800Z,12.78
2023-03-25T10:14:08.258Z,12.9
2023-03-25T10:15:08.949Z,12.94
2023-03-25T10:16:09.395Z,13.01
2023-03-25T10:17:10.182Z,13.09
2023-03-25T10:18:11.084Z,13.3
2023-03-25T10:19:11.373Z,13.37
2023-03-25T10:20:12.653Z,13.28
2023-03-25T10:21:13.229Z,13.28
2023-03-25T10:22:14.219Z,13.36
2023-03-25T10:23:13.913Z,13.16
2023-03-25T10:24:15.076Z,13.09
2023-03-25T10:25:15.626Z,13.16
2023-03-25T10:26:16.337Z,13.09
2023-03-25T10:27:16.853Z,13.06
2023-03-25T10:28:17.743Z,12.99
2023-03-25T10:29:18.126Z,13.01
2023-03-25T10:30:18.623Z,13.05
2023-03-25T10:31:19.391Z,13.03
2023-03-25T10:32:20.621Z,12.95
2023-03-25T10:33:20.577Z,12.88
2023-03-25T10:34:21.358Z,12.9
2023-03-25T10:35:21.777Z,12.76
2023-03-25T10:36:22.820Z,12.83
2023-03-25T10:37:23.772Z,12.68
2023-03-25T10:38:24.644Z,12.63
2023-03-25T10:39:25.740Z,12.7
2023-03-25T10:40:27.542Z,12.54
2023-03-25T10:42:26.751Z,12.4
2023-03-25T10:43:27.462Z,12.4
2023-03-25T10:44:28.576Z,12.36
2023-03-25T10:45:29.279Z,12.47
2023-03-25T10:46:30.063Z,12.35
2023-03-25T10:47:30.432Z,12.39
2023-03-25T10:48:31.282Z,12.37
2023-03-25T10:49:31.680Z,12.18
2023-03-25T10:50:32.591Z,12.17
2023-03-25T10:51:33.130Z,11.99
2023-03-25T10:52:33.688Z,11.89
2023-03-25T10:53:34.387Z,11.96
2023-03-25T10:54:35.353Z,12.02
2023-03-25T10:55:36.249Z,12.05
2023-03-25T10:56:37.091Z,12.18
2023-03-25T10:57:36.720Z,12.28
2023-03-25T10:58:37.205Z,12.39
2023-03-25T10:59:37.443Z,12.55
2023-03-25T11:00:37.946Z,12.65
2023-03-25T11:01:38.641Z,12.81
2023-03-25T11:02:39.631Z,12.9
2023-03-25T11:03:39.949Z,12.93
2023-03-25T11:04:40.557Z,13.06
2023-03-25T11:05:41.442Z,13.3
2023-03-25T11:06:42.266Z,13.36
2023-03-25T11:07:43.080Z,13.24
2023-03-25T11:08:43.892Z,13.33
2023-03-25T11:09:44.640Z,13.26
2023-03-25T11:10:45.353Z,13.42
2023-03-25T11:11:46.110Z,13.43
2023-03-25T11:12:49.200Z,13.47
2023-03-25T11:14:48.394Z,13.58
2023-03-25T11:15:49.430Z,13.71
2023-03-25T11:16:49.761Z,13.8
2023-03-25T11:17:50.285Z,14
2023-03-25T11:18:51.324Z,14.22
2023-03-25T11:19:51.965Z,14.33
2023-03-25T11:20:52.474Z,14.38
2023-03-25T11:21:53.444Z,14.38
2023-03-25T11:22:54.017Z,14.34
2023-03-25T11:23:54.564Z,14.26
2023-03-25T11:24:55.328Z,14.37
2023-03-25T11:25:56.287Z,14.43
2023-03-25T11:27:57.105Z,14.79
2023-03-25T11:28:57.865Z,14.85
2023-03-25T11:29:58.572Z,15
2023-03-25T11:30:59.412Z,15.08
2023-03-25T11:31:59.874Z,15.08
2023-03-25T11:33:00.665Z,15.11
2023-03-25T11:34:01.342Z,15.07
2023-03-25T11:35:01.497Z,14.93
2023-03-25T11:36:02.382Z,14.85
2023-03-25T11:37:03.209Z,14.86
2023-03-25T11:38:04.166Z,14.67
2023-03-25T11:39:04.269Z,14.53
2023-03-25T11:40:04.703Z,14.45
2023-03-25T11:41:05.338Z,14.48
2023-03-25T11:42:06.265Z,14.4
2023-03-25T11:43:06.965Z,14.19
2023-03-25T11:44:07.681Z,14.11
2023-03-25T11:45:08.373Z,14.05
2023-03-25T11:46:09.171Z,13.87
2023-03-25T11:47:09.869Z,13.89
2023-03-25T11:48:11.081Z,13.85
2023-03-25T11:49:11.760Z,13.79
2023-03-25T11:50:12.211Z,13.76
2023-03-25T11:51:13.152Z,13.61
2023-03-25T11:52:14.098Z,13.46
2023-03-25T11:53:15.492Z,13.33
2023-03-25T11:55:15.653Z,12.98
2023-03-25T11:56:16.753Z,12.66
2023-03-25T11:57:17.739Z,12.39
2023-03-25T11:58:18.253Z,12.37
2023-03-25T11:59:18.836Z,12.28
2023-03-25T12:00:19.690Z,12.14
2023-03-25T12:01:20.807Z,12.07
2023-03-25T12:02:21.742Z,12.08
2023-03-25T12:03:24.123Z,12
2023-03-25T12:05:22.523Z,11.86
2023-03-25T12:06:23.136Z,11.89
2023-03-25T12:07:23.751Z,11.78
2023-03-25T12:08:24.725Z,11.88
2023-03-25T12:09:25.474Z,11.76
2023-03-25T12:10:26.030Z,11.83
2023-03-25T12:11:26.928Z,11.78
2023-03-25T12:12:27.603Z,11.91
2023-03-25T12:13:28.105Z,11.99
2023-03-25T12:14:28.586Z,12
2023-03-25T12:15:29.136Z,12.11
2023-03-25T12:16:29.942Z,12.32
2023-03-25T12:17:30.989Z,12.32
2023-03-25T12:18:30.801Z,12.43
2023-03-25T12:19:31.721Z,12.62
2023-03-25T12:20:32.315Z,12.61
2023-03-25T12:21:33.109Z,12.66
2023-03-25T12:22:33.856Z,12.65
2023-03-25T12:23:34.879Z,12.62
2023-03-25T12:24:35.203Z,12.63
2023-03-25T12:25:36.148Z,12.65
2023-03-25T12:26:36.682Z,12.69
2023-03-25T12:27:37.404Z,12.76
2023-03-25T12:28:38.142Z,12.87
2023-03-25T12:29:38.685Z,12.75
2023-03-25T12:30:38.953Z,12.83
2023-03-25T12:31:39.994Z,12.9
2023-03-25T12:32:40.737Z,12.99
2023-03-25T12:33:41.198Z,13.11
2023-03-25T12:34:44.195Z,13.19
2023-03-25T12:36:42.786Z,13.26
2023-03-25T12:37:43.977Z,13.24
2023-03-25T12:38:44.510Z,13.27
2023-03-25T12:39:48.662Z,13.17
2023-03-25T12:41:46.122Z,13.03
2023-03-25T12:42:46.842Z,13.11
2023-03-25T12:43:47.345Z,13.05
2023-03-25T12:44:47.509Z,12.78
2023-03-25T12:45:48.124Z,12.61
2023-03-25T12:46:48.620Z,12.37
2023-03-25T12:47:49.762Z,12.15
2023-03-25T12:49:49.392Z,11.95
2023-03-25T12:50:50.494Z,11.91
2023-03-25T12:51:51.054Z,11.86
2023-03-25T12:52:51.807Z,11.71
2023-03-25T12:53:52.796Z,11.63
2023-03-25T12:54:53.568Z,11.56
2023-03-25T12:55:53.660Z,11.43
2023-03-25T12:56:54.463Z,11.41
2023-03-25T12:57:54.632Z,11.22
2023-03-25T12:58:54.953Z,11.22
2023-03-25T12:59:55.461Z,11.13
2023-03-25T13:00:56.468Z,11.12
2023-03-25T13:01:56.364Z,10.97
2023-03-25T13:02:57.640Z,10.86
2023-03-25T13:03:57.615Z,10.83
2023-03-25T13:04:57.979Z,10.58
2023-03-25T13:05:58.726Z,10.68
2023-03-25T13:06:59.639Z,10.77
2023-03-25T13:07:59.636Z,10.71
2023-03-25T13:09:00.799Z,10.76
2023-03-25T13:10:01.315Z,10.69
2023-03-25T13:11:01.956Z,10.62
2023-03-25T13:12:02.860Z,10.61
2023-03-25T13:13:03.637Z,10.62
2023-03-25T13:14:03.930Z,10.48
2023-03-25T13:15:04.836Z,10.55
2023-03-25T13:16:04.898Z,10.65
2023-03-25T13:17:04.887Z,10.65
2023-03-25T13:18:05.735Z,10.67
2023-03-25T13:19:05.775Z,10.36
2023-03-25T13:20:06.705Z,10.23
2023-03-25T13:21:14.584Z,10.18
2023-03-25T13:23:08.638Z,9.94
2023-03-25T13:24:09.594Z,10.12
2023-03-25T13:25:10.339Z,10.38
2023-03-25T13:26:11.286Z,10.68
2023-03-25T13:27:11.973Z,10.82
2023-03-25T13:28:12.288Z,10.87
2023-03-25T13:29:12.987Z,11.04
2023-03-25T13:30:14.105Z,11.16
2023-03-25T13:31:14.538Z,11.33
2023-03-25T13:32:15.008Z,11.35
2023-03-25T13:33:14.737Z,11.43
2023-03-25T13:34:15.458Z,11.53
2023-03-25T13:35:16.179Z,11.63
2023-03-25T13:36:16.944Z,11.76
2023-03-25T13:37:17.795Z,11.86